createdAt,value
2023-03-02T00:02:42.474Z,10.35
2023-03-02T00:06:44.457Z,11.73
2023-03-02T00:10:46.362Z,6.32
2023-03-02T00:14:48.171Z,7.43
2023-03-02T00:18:49.914Z,11.48
2023-03-02T00:22:51.714Z,10.55
2023-03-02T00:26:53.498Z,15.48
2023-03-02T00:30:55.381Z,10.43
2023-03-02T00:34:58.307Z,13.10
2023-03-02T00:39:00.176Z,14.88
2023-03-02T00:43:02.025Z,13.25
2023-03-02T00:47:04.169Z,10.57
2023-03-02T00:51:07.435Z,13.52
2023-03-02T00:55:09.488Z,12.90
2023-03-02T00:59:28.695Z,14.93
2023-03-02T01:03:43.932Z,14.23
2023-03-02T01:07:45.948Z,15.13
2023-03-02T01:11:47.761Z,14.18
2023-03-02T01:15:49.666Z,13.93
2023-03-02T01:19:52.485Z,17.67
2023-03-02T01:23:54.627Z,12.15
2023-03-02T01:27:56.460Z,12.27
2023-03-02T01:31:58.611Z,12.18
2023-03-02T01:36:00.658Z,11.55
2023-03-02T01:40:06.468Z,9.27
2023-03-02T01:44:45.601Z,9.75
2023-03-02T01:48:52.102Z,10.38
2023-03-02T01:53:15.114Z,12.20
2023-03-02T01:57:23.387Z,8.30
2023-03-02T02:01:25.360Z,8.65
2023-03-02T02:05:28.207Z,10.68
2023-03-02T02:09:40.343Z,9.20
2023-03-02T02:13:42.588Z,8.07
2023-03-02T02:17:44.450Z,10.27
2023-03-02T02:21:46.490Z,12.05
2023-03-02T02:25:58.220Z,13.30
2023-03-02T02:30:03.535Z,12.55
2023-03-02T02:34:22.679Z,9.15
2023-03-02T02:38:27.246Z,12.48
2023-03-02T02:42:36.150Z,11.70
2023-03-02T02:46:38.139Z,7.50
2023-03-02T02:50:39.882Z,10.77
2023-03-02T02:54:44.838Z,10.40
2023-03-02T02:58:50.581Z,10.50
2023-03-02T03:03:00.984Z,9.30
2023-03-02T03:07:05.460Z,13.25
2023-03-02T03:11:09.068Z,13.38
2023-03-02T03:15:12.035Z,12.52
2023-03-02T03:19:31.816Z,15.07
2023-03-02T03:23:38.180Z,18.77
2023-03-02T03:27:44.640Z,13.30
2023-03-02T03:31:47.606Z,19.77
2023-03-02T03:35:49.644Z,14.95
2023-03-02T03:39:51.901Z,13.65
2023-03-02T03:43:54.880Z,14.90
2023-03-02T03:47:57.450Z,16.30
2023-03-02T03:51:59.478Z,17.35
2023-03-02T03:56:03.769Z,13.05
2023-03-02T04:00:09.235Z,15.05
2023-03-02T04:04:19.030Z,14.50
2023-03-02T04:08:22.307Z,17.35
2023-03-02T04:12:24.392Z,13.52
2023-03-02T04:16:29.427Z,15.20
2023-03-02T04:21:24.479Z,8.02
2023-03-02T04:25:29.259Z,7.50
2023-03-02T04:29:36.883Z,12.68
2023-03-02T04:33:40.208Z,7.55
2023-03-02T04:37:42.772Z,11.27
2023-03-02T04:41:46.235Z,7.78
2023-03-02T04:45:48.337Z,6.78
2023-03-02T04:49:54.617Z,5.22
2023-03-02T04:53:59.054Z,7.97
2023-03-02T04:58:00.846Z,5.90
2023-03-02T05:02:02.749Z,4.80
2023-03-02T05:06:05.001Z,7.65
2023-03-02T05:10:07.325Z,8.18
2023-03-02T05:14:11.983Z,7.07
2023-03-02T05:18:13.792Z,6.38
2023-03-02T05:22:15.597Z,4.13
2023-03-02T05:26:17.938Z,4.95
2023-03-02T05:30:21.139Z,7.18
2023-03-02T05:34:22.952Z,8.27
2023-03-02T05:38:24.811Z,11.93
2023-03-02T05:42:26.689Z,10.35
2023-03-02T05:46:28.771Z,10.55
2023-03-02T05:50:30.945Z,6.85
2023-03-02T05:54:32.707Z,5.93
2023-03-02T05:58:34.581Z,7.70
2023-03-02T06:02:39.341Z,6.80
2023-03-02T06:06:41.160Z,6.10
2023-03-02T06:10:43.209Z,8.57
2023-03-02T06:14:45.072Z,7.20
2023-03-02T06:18:46.915Z,6.13
2023-03-02T06:22:48.681Z,6.50
2023-03-02T06:26:52.608Z,5.85
2023-03-02T06:30:54.553Z,6.05
2023-03-02T06:34:56.423Z,8.90
2023-03-02T06:38:58.366Z,7.82
2023-03-02T06:43:02.059Z,8.15
2023-03-02T06:47:05.039Z,4.75
2023-03-02T06:51:08.006Z,6.30
2023-03-02T06:55:10.390Z,5.97
2023-03-02T06:59:12.286Z,4.50
2023-03-02T07:03:14.210Z,6.45
2023-03-02T07:07:16.005Z,3.72
2023-03-02T07:11:17.882Z,3.60
2023-03-02T07:15:19.889Z,7.55
2023-03-02T07:19:21.650Z,12.57
2023-03-02T07:23:23.771Z,8.95
2023-03-02T07:27:25.763Z,12.40
2023-03-02T07:31:28.443Z,10.85
2023-03-02T07:35:30.250Z,7.95
2023-03-02T07:39:32.561Z,11.93
2023-03-02T07:43:36.626Z,11.23
2023-03-02T07:47:38.420Z,13.30
2023-03-02T07:51:40.188Z,13.77
2023-03-02T07:55:42.165Z,12.43
2023-03-02T07:59:44.763Z,14.60
2023-03-02T08:03:46.518Z,8.70
2023-03-02T08:07:48.807Z,8.15
2023-03-02T08:11:50.642Z,11.40
2023-03-02T08:15:59.719Z,14.57
2023-03-02T08:20:01.654Z,10.38
2023-03-02T08:24:04.279Z,7.53
2023-03-02T08:28:06.102Z,8.60
2023-03-02T08:32:08.156Z,6.50
2023-03-02T08:36:14.284Z,12.77
2023-03-02T08:40:16.255Z,10.10
2023-03-02T08:44:18.156Z,8.30
2023-03-02T08:48:22.258Z,10.75
2023-03-02T08:52:24.040Z,8.68
2023-03-02T08:56:34.223Z,8.93
2023-03-02T09:00:36.168Z,8.38
2023-03-02T09:04:38.818Z,9.60
2023-03-02T09:08:41.342Z,9.48
2023-03-02T09:12:43.185Z,9.52
2023-03-02T09:16:45.602Z,9.23
2023-03-02T09:20:53.733Z,8.98
2023-03-02T09:24:55.544Z,11.90
2023-03-02T09:28:57.809Z,13.85
2023-03-02T09:32:59.817Z,10.40
2023-03-02T09:37:01.745Z,10.57
2023-03-02T09:41:06.379Z,12.60
2023-03-02T09:45:20.128Z,13.00
2023-03-02T09:50:00.475Z,10.35
2023-03-02T09:54:14.832Z,8.55
2023-03-02T09:58:20.545Z,10.20
2023-03-02T10:02:45.280Z,8.77
2023-03-02T10:06:47.104Z,10.50
2023-03-02T10:11:21.832Z,9.48
2023-03-02T10:15:46.691Z,13.95
2023-03-02T10:20:05.232Z,9.27
2023-03-02T10:24:38.620Z,11.00
2023-03-02T10:28:49.579Z,9.45
2023-03-02T10:32:52.823Z,13.80
2023-03-02T10:36:54.821Z,13.95
2023-03-02T10:41:00.186Z,11.90
2023-03-02T10:45:29.736Z,8.35
2023-03-02T10:49:39.438Z,9.60
2023-03-02T10:53:41.260Z,10.18
2023-03-02T10:57:45.808Z,13.68
2023-03-02T11:01:59.399Z,8.60
2023-03-02T11:06:18.491Z,14.27
2023-03-02T11:10:23.631Z,7.15
2023-03-02T11:14:25.527Z,10.65
2023-03-02T11:18:37.099Z,7.93
2023-03-02T11:22:47.975Z,8.48
2023-03-02T11:27:00.738Z,8.13
2023-03-02T11:31:06.735Z,6.35
2023-03-02T11:35:40.243Z,9.83
2023-03-02T11:39:54.993Z,7.70
2023-03-02T11:44:01.401Z,7.60
2023-03-02T11:48:12.580Z,9.40
2023-03-02T11:52:21.168Z,9.80
2023-03-02T11:56:23.859Z,10.18
2023-03-02T12:00:35.856Z,7.95
2023-03-02T12:04:38.618Z,5.78
2023-03-02T12:08:45.712Z,5.35
2023-03-02T12:12:58.137Z,4.82
2023-03-02T12:17:25.388Z,6.82
2023-03-02T12:21:27.234Z,7.55
2023-03-02T12:25:38.597Z,6.00
2023-03-02T12:29:42.144Z,5.15
2023-03-02T12:33:51.005Z,7.10
2023-03-02T12:37:59.608Z,7.68
2023-03-02T12:42:22.796Z,7.68
2023-03-02T12:46:28.968Z,7.15
2023-03-02T12:50:37.632Z,8.35
2023-03-02T12:54:39.447Z,7.00
2023-03-02T12:58:49.929Z,6.03
2023-03-02T13:02:55.184Z,6.80
2023-03-02T13:06:56.994Z,6.45
2023-03-02T13:11:02.066Z,5.65
2023-03-02T13:15:15.360Z,6.57
2023-03-02T13:19:19.955Z,6.82
2023-03-02T13:23:21.807Z,7.13
2023-03-02T13:27:25.366Z,6.05
2023-03-02T13:31:27.353Z,9.63
2023-03-02T13:35:32.249Z,6.22
2023-03-02T13:39:34.097Z,6.40
2023-03-02T13:43:39.922Z,7.07
2023-03-02T13:47:43.803Z,6.95
2023-03-02T13:51:47.475Z,6.40
2023-03-02T13:55:49.426Z,5.80
2023-03-02T13:59:51.416Z,6.18
2023-03-02T14:03:53.274Z,6.32
2023-03-02T14:07:55.040Z,6.43
2023-03-02T14:11:57.826Z,7.20
2023-03-02T14:15:59.725Z,6.45
2023-03-02T14:20:01.784Z,8.32
2023-03-02T14:24:03.723Z,6.35
2023-03-02T14:28:05.673Z,4.97
2023-03-02T14:32:10.663Z,6.10
2023-03-02T14:36:19.400Z,7.15
2023-03-02T14:40:26.714Z,4.03
2023-03-02T14:44:28.573Z,6.03
2023-03-02T14:48:30.343Z,6.22
2023-03-02T14:52:40.042Z,5.97
2023-03-02T14:56:43.387Z,6.45
2023-03-02T15:00:45.600Z,4.97
2023-03-02T15:04:47.522Z,5.43
2023-03-02T15:08:49.307Z,6.18
2023-03-02T15:12:51.410Z,5.85
2023-03-02T15:16:53.312Z,5.40
2023-03-02T15:20:55.087Z,5.40
2023-03-02T15:24:56.975Z,3.95
2023-03-02T15:28:58.860Z,4.30
2023-03-02T15:33:00.705Z,5.65
2023-03-02T15:37:02.677Z,4.13
2023-03-02T15:41:10.899Z,3.50
2023-03-02T15:45:12.671Z,5.85
2023-03-02T15:49:14.486Z,4.38
2023-03-02T15:53:16.270Z,4.10
2023-03-02T15:57:18.653Z,6.40
2023-03-02T16:01:20.498Z,5.00
2023-03-02T16:05:22.302Z,6.47
2023-03-02T16:09:25.644Z,6.20
2023-03-02T16:13:30.373Z,4.60
2023-03-02T16:17:32.182Z,5.05
2023-03-02T16:21:33.982Z,7.70
2023-03-02T16:25:39.805Z,6.18
2023-03-02T16:29:41.626Z,5.50
2023-03-02T16:33:44.798Z,5.50
2023-03-02T16:37:46.587Z,4.13
2023-03-02T16:41:48.625Z,5.57
2023-03-02T16:45:53.377Z,5.97
2023-03-02T16:49:55.237Z,3.47
2023-03-02T16:53:57.440Z,2.83
2023-03-02T16:57:59.260Z,4.20
2023-03-02T17:02:01.037Z,4.88
2023-03-02T17:06:05.460Z,3.35
2023-03-02T17:10:09.776Z,5.57
2023-03-02T17:14:11.902Z,4.22
2023-03-02T17:18:13.691Z,5.50
2023-03-02T17:22:16.033Z,7.40
2023-03-02T17:26:17.856Z,7.85
2023-03-02T17:30:20.208Z,6.50
2023-03-02T17:34:22.473Z,4.47
2023-03-02T17:38:24.227Z,4.00
2023-03-02T17:42:27.206Z,5.30
2023-03-02T17:46:29.467Z,5.50
2023-03-02T17:50:31.868Z,6.90
2023-03-02T17:54:33.701Z,6.30
2023-03-02T17:58:44.740Z,7.35
2023-03-02T18:02:47.461Z,5.93
2023-03-02T18:06:49.584Z,5.30
2023-03-02T18:10:51.657Z,6.15
2023-03-02T18:14:53.446Z,9.05
2023-03-02T18:18:58.333Z,9.18
2023-03-02T18:23:00.390Z,7.32
2023-03-02T18:27:02.442Z,6.40
2023-03-02T18:31:04.887Z,7.43
2023-03-02T18:35:06.956Z,6.05
2023-03-02T18:44:31.184Z,4.47
2023-03-02T18:48:33.180Z,6.35
2023-03-02T18:52:34.869Z,5.00
2023-03-02T18:56:39.025Z,7.15
2023-03-02T19:00:41.389Z,5.15
2023-03-02T19:04:43.384Z,6.68
2023-03-02T19:08:45.266Z,8.85
2023-03-02T19:12:47.027Z,7.28
2023-03-02T19:16:49.129Z,8.57
2023-03-02T19:20:52.056Z,7.38
2023-03-02T19:24:53.874Z,12.43
2023-03-02T19:28:55.637Z,9.68
2023-03-02T19:32:57.931Z,13.18
2023-03-02T19:36:59.700Z,6.32
2023-03-02T19:41:02.135Z,8.27
2023-03-02T19:45:04.267Z,5.47
2023-03-02T19:49:06.339Z,4.97
2023-03-02T19:53:09.922Z,3.92
2023-03-02T19:57:11.797Z,4.38
2023-03-02T20:01:16.494Z,4.90
2023-03-02T20:05:18.338Z,9.85
2023-03-02T20:09:20.421Z,8.90
2023-03-02T20:13:22.206Z,10.27
2023-03-02T20:17:24.064Z,11.55
2023-03-02T20:21:26.672Z,12.10
2023-03-02T20:25:28.542Z,9.82
2023-03-02T20:29:30.376Z,7.25
2023-03-02T20:33:37.078Z,9.52
2023-03-02T20:37:39.162Z,7.65
2023-03-02T20:41:41.381Z,10.68
2023-03-02T20:45:44.083Z,9.55
2023-03-02T20:49:45.914Z,6.20
2023-03-02T20:53:47.828Z,7.20
2023-03-02T20:57:49.679Z,9.20
2023-03-02T21:01:52.008Z,7.05
2023-03-02T21:05:53.903Z,8.07
2023-03-02T21:09:55.652Z,4.93
2023-03-02T21:13:59.477Z,5.93
2023-03-02T21:18:01.552Z,5.95
2023-03-02T21:22:04.144Z,4.38
2023-03-02T21:26:05.918Z,6.95
2023-03-02T21:30:12.868Z,3.55
2023-03-02T21:34:15.852Z,3.40
2023-03-02T21:38:17.657Z,5.78
2023-03-02T21:42:19.594Z,7.07
2023-03-02T21:46:23.162Z,5.75
2023-03-02T21:50:28.818Z,4.38
2023-03-02T21:54:30.604Z,6.78
2023-03-02T21:58:32.446Z,6.07
2023-03-02T22:02:34.220Z,4.80
2023-03-02T22:06:36.087Z,8.70
2023-03-02T22:10:43.886Z,12.25
2023-03-02T22:14:45.709Z,5.20
2023-03-02T22:18:49.505Z,10.43
2023-03-02T22:22:53.613Z,8.32
2023-03-02T22:26:59.625Z,10.48
2023-03-02T22:31:01.722Z,8.68
2023-03-02T22:35:24.685Z,8.45
2023-03-02T22:39:32.250Z,4.43
2023-03-02T22:43:35.213Z,5.05
2023-03-02T22:47:36.950Z,4.38
2023-03-02T22:51:38.782Z,5.88
2023-03-02T22:55:43.201Z,6.53
2023-03-02T22:59:44.980Z,6.07
2023-03-02T23:03:50.659Z,6.60
2023-03-02T23:07:59.534Z,8.00
2023-03-02T23:12:18.924Z,8.20
2023-03-02T23:16:24.807Z,8.63
2023-03-02T23:20:27.012Z,7.95
2023-03-02T23:24:28.789Z,6.47
2023-03-02T23:28:30.570Z,5.55
2023-03-02T23:32:32.362Z,6.20
2023-03-02T23:36:34.230Z,5.45
2023-03-02T23:40:36.132Z,7.05
2023-03-02T23:44:37.896Z,4.65
2023-03-02T23:48:41.000Z,5.95
2023-03-02T23:52:42.779Z,4.15
2023-03-02T23:56:44.594Z,2.80
